sensor_id;sensor_type;location;lat;lon;timestamp;temperature;humidity
75022;SHT31;63583;49.976;20.182;2023-09-07T00:01:55;15.29;83.85
75022;SHT31;63583;49.976;20.182;2023-09-07T00:04:21;15.18;84.11
75022;SHT31;63583;49.976;20.182;2023-09-07T00:06:51;15.11;84.38
75022;SHT31;63583;49.976;20.182;2023-09-07T00:09:17;15.09;84.36
75022;SHT31;63583;49.976;20.182;2023-09-07T00:11:47;15.08;84.51
75022;SHT31;63583;49.976;20.182;2023-09-07T00:14:14;14.99;84.63
75022;SHT31;63583;49.976;20.182;2023-09-07T00:16:39;15.01;84.46
75022;SHT31;63583;49.976;20.182;2023-09-07T00:19:05;14.99;84.36
75022;SHT31;63583;49.976;20.182;2023-09-07T00:21:31;14.93;84.20
75022;SHT31;63583;49.976;20.182;2023-09-07T00:23:57;14.92;84.04
75022;SHT31;63583;49.976;20.182;2023-09-07T00:26:22;14.92;83.97
75022;SHT31;63583;49.976;20.182;2023-09-07T00:28:48;14.99;83.94
75022;SHT31;63583;49.976;20.182;2023-09-07T00:31:14;15.01;83.97
75022;SHT31;63583;49.976;20.182;2023-09-07T00:33:39;15.02;83.95
75022;SHT31;63583;49.976;20.182;2023-09-07T00:36:05;15.03;83.71
75022;SHT31;63583;49.976;20.182;2023-09-07T00:38:31;14.99;83.70
75022;SHT31;63583;49.976;20.182;2023-09-07T00:40:57;14.99;83.79
75022;SHT31;63583;49.976;20.182;2023-09-07T00:43:23;14.92;83.72
75022;SHT31;63583;49.976;20.182;2023-09-07T00:45:49;14.87;83.94
75022;SHT31;63583;49.976;20.182;2023-09-07T00:48:15;14.85;84.06
75022;SHT31;63583;49.976;20.182;2023-09-07T00:50:44;14.84;84.34
75022;SHT31;63583;49.976;20.182;2023-09-07T00:53:10;14.80;84.56
75022;SHT31;63583;49.976;20.182;2023-09-07T00:55:37;14.74;84.49
75022;SHT31;63583;49.976;20.182;2023-09-07T00:58:04;14.81;84.25
75022;SHT31;63583;49.976;20.182;2023-09-07T01:00:30;14.74;84.17
75022;SHT31;63583;49.976;20.182;2023-09-07T01:02:56;14.70;84.32
75022;SHT31;63583;49.976;20.182;2023-09-07T01:05:26;14.71;84.34
75022;SHT31;63583;49.976;20.182;2023-09-07T01:07:59;14.74;84.18
75022;SHT31;63583;49.976;20.182;2023-09-07T01:10:26;14.72;84.19
75022;SHT31;63583;49.976;20.182;2023-09-07T01:12:52;14.71;84.37
75022;SHT31;63583;49.976;20.182;2023-09-07T01:15:17;14.75;84.41
75022;SHT31;63583;49.976;20.182;2023-09-07T01:17:43;14.72;84.43
75022;SHT31;63583;49.976;20.182;2023-09-07T01:20:09;14.71;84.41
75022;SHT31;63583;49.976;20.182;2023-09-07T01:22:38;14.74;84.25
75022;SHT31;63583;49.976;20.182;2023-09-07T01:25:05;14.72;84.18
75022;SHT31;63583;49.976;20.182;2023-09-07T01:27:33;14.68;84.31
75022;SHT31;63583;49.976;20.182;2023-09-07T01:29:58;14.65;84.46
75022;SHT31;63583;49.976;20.182;2023-09-07T01:32:24;14.67;84.61
75022;SHT31;63583;49.976;20.182;2023-09-07T01:34:55;14.63;84.89
75022;SHT31;63583;49.976;20.182;2023-09-07T01:37:22;14.56;85.38
75022;SHT31;63583;49.976;20.182;2023-09-07T01:39:48;14.59;85.67
75022;SHT31;63583;49.976;20.182;2023-09-07T01:42:14;14.51;85.89
75022;SHT31;63583;49.976;20.182;2023-09-07T01:44:40;14.47;86.66
75022;SHT31;63583;49.976;20.182;2023-09-07T01:47:06;14.43;87.25
75022;SHT31;63583;49.976;20.182;2023-09-07T01:49:31;14.51;87.46
75022;SHT31;63583;49.976;20.182;2023-09-07T01:51:57;14.44;87.34
75022;SHT31;63583;49.976;20.182;2023-09-07T01:54:23;14.43;87.56
75022;SHT31;63583;49.976;20.182;2023-09-07T01:56:49;14.32;87.84
75022;SHT31;63583;49.976;20.182;2023-09-07T01:59:14;14.26;88.12
75022;SHT31;63583;49.976;20.182;2023-09-07T02:01:40;14.17;88.27
75022;SHT31;63583;49.976;20.182;2023-09-07T02:04:06;14.10;88.13
75022;SHT31;63583;49.976;20.182;2023-09-07T02:06:32;14.08;87.93
75022;SHT31;63583;49.976;20.182;2023-09-07T02:08:58;14.04;87.93
75022;SHT31;63583;49.976;20.182;2023-09-07T02:11:24;13.96;88.01
75022;SHT31;63583;49.976;20.182;2023-09-07T02:13:49;13.96;88.44
75022;SHT31;63583;49.976;20.182;2023-09-07T02:16:15;13.94;88.47
75022;SHT31;63583;49.976;20.182;2023-09-07T02:18:42;13.92;88.28
75022;SHT31;63583;49.976;20.182;2023-09-07T02:21:12;13.86;88.04
75022;SHT31;63583;49.976;20.182;2023-09-07T02:23:39;13.79;88.07
75022;SHT31;63583;49.976;20.182;2023-09-07T02:26:06;13.77;88.06
75022;SHT31;63583;49.976;20.182;2023-09-07T02:28:31;13.78;88.15
75022;SHT31;63583;49.976;20.182;2023-09-07T02:31:04;13.78;88.12
75022;SHT31;63583;49.976;20.182;2023-09-07T02:33:30;13.82;87.99
75022;SHT31;63583;49.976;20.182;2023-09-07T02:35:57;13.86;87.87
75022;SHT31;63583;49.976;20.182;2023-09-07T02:38:22;13.85;87.89
75022;SHT31;63583;49.976;20.182;2023-09-07T02:40:48;13.86;87.96
75022;SHT31;63583;49.976;20.182;2023-09-07T02:43:14;13.83;88.11
75022;SHT31;63583;49.976;20.182;2023-09-07T02:45:41;13.75;88.50
75022;SHT31;63583;49.976;20.182;2023-09-07T02:48:07;13.71;88.78
75022;SHT31;63583;49.976;20.182;2023-09-07T02:50:34;13.69;89.15
75022;SHT31;63583;49.976;20.182;2023-09-07T02:53:00;13.65;89.33
75022;SHT31;63583;49.976;20.182;2023-09-07T02:55:27;13.62;89.56
75022;SHT31;63583;49.976;20.182;2023-09-07T02:57:53;13.68;89.43
75022;SHT31;63583;49.976;20.182;2023-09-07T03:00:21;13.69;89.19
75022;SHT31;63583;49.976;20.182;2023-09-07T03:02:47;13.77;89.10
75022;SHT31;63583;49.976;20.182;2023-09-07T03:05:17;13.75;89.15
75022;SHT31;63583;49.976;20.182;2023-09-07T03:07:44;13.71;89.48
75022;SHT31;63583;49.976;20.182;2023-09-07T03:10:10;13.74;89.46
75022;SHT31;63583;49.976;20.182;2023-09-07T03:12:36;13.72;89.65
75022;SHT31;63583;49.976;20.182;2023-09-07T03:15:03;13.72;89.53
75022;SHT31;63583;49.976;20.182;2023-09-07T03:17:29;13.74;89.62
75022;SHT31;63583;49.976;20.182;2023-09-07T03:19:55;13.77;89.62
75022;SHT31;63583;49.976;20.182;2023-09-07T03:22:22;13.69;89.69
75022;SHT31;63583;49.976;20.182;2023-09-07T03:24:52;13.74;89.46
75022;SHT31;63583;49.976;20.182;2023-09-07T03:27:17;13.71;89.37
75022;SHT31;63583;49.976;20.182;2023-09-07T03:29:44;13.72;89.36
75022;SHT31;63583;49.976;20.182;2023-09-07T03:32:10;13.64;89.59
75022;SHT31;63583;49.976;20.182;2023-09-07T03:34:36;13.57;89.81
75022;SHT31;63583;49.976;20.182;2023-09-07T03:37:02;13.46;90.15
75022;SHT31;63583;49.976;20.182;2023-09-07T03:39:28;13.46;90.21
75022;SHT31;63583;49.976;20.182;2023-09-07T03:41:53;13.43;90.32
75022;SHT31;63583;49.976;20.182;2023-09-07T03:44:19;13.46;89.97
75022;SHT31;63583;49.976;20.182;2023-09-07T03:46:45;13.57;89.59
75022;SHT31;63583;49.976;20.182;2023-09-07T03:49:11;13.54;89.46
75022;SHT31;63583;49.976;20.182;2023-09-07T03:51:36;13.55;89.51
75022;SHT31;63583;49.976;20.182;2023-09-07T03:54:03;13.51;89.62
75022;SHT31;63583;49.976;20.182;2023-09-07T03:56:28;13.48;89.72
75022;SHT31;63583;49.976;20.182;2023-09-07T03:58:55;13.41;89.89
75022;SHT31;63583;49.976;20.182;2023-09-07T04:01:20;13.37;90.01
75022;SHT31;63583;49.976;20.182;2023-09-07T04:03:46;13.30;90.36
75022;SHT31;63583;49.976;20.182;2023-09-07T04:06:12;13.21;90.42
75022;SHT31;63583;49.976;20.182;2023-09-07T04:08:38;13.20;90.53
75022;SHT31;63583;49.976;20.182;2023-09-07T04:11:04;13.21;90.37
75022;SHT31;63583;49.976;20.182;2023-09-07T04:13:31;13.20;90.11
75022;SHT31;63583;49.976;20.182;2023-09-07T04:15:56;13.20;90.15
75022;SHT31;63583;49.976;20.182;2023-09-07T04:18:22;13.21;90.08
75022;SHT31;63583;49.976;20.182;2023-09-07T04:20:48;13.33;89.50
75022;SHT31;63583;49.976;20.182;2023-09-07T04:23:13;13.44;88.92
75022;SHT31;63583;49.976;20.182;2023-09-07T04:25:39;13.50;88.76
75022;SHT31;63583;49.976;20.182;2023-09-07T04:28:05;13.64;88.59
75022;SHT31;63583;49.976;20.182;2023-09-07T04:30:32;13.79;88.67
75022;SHT31;63583;49.976;20.182;2023-09-07T04:32:58;13.88;88.71
75022;SHT31;63583;49.976;20.182;2023-09-07T04:35:29;14.02;88.45
75022;SHT31;63583;49.976;20.182;2023-09-07T04:37:56;14.20;87.60
75022;SHT31;63583;49.976;20.182;2023-09-07T04:40:22;14.24;87.22
75022;SHT31;63583;49.976;20.182;2023-09-07T04:42:48;14.29;86.82
75022;SHT31;63583;49.976;20.182;2023-09-07T04:45:14;14.37;87.08
75022;SHT31;63583;49.976;20.182;2023-09-07T04:47:39;14.47;86.57
75022;SHT31;63583;49.976;20.182;2023-09-07T04:50:06;14.57;86.22
75022;SHT31;63583;49.976;20.182;2023-09-07T04:52:32;14.71;86.05
75022;SHT31;63583;49.976;20.182;2023-09-07T04:54:57;14.80;85.30
75022;SHT31;63583;49.976;20.182;2023-09-07T04:57:23;15.11;84.29
75022;SHT31;63583;49.976;20.182;2023-09-07T04:59:49;15.05;85.15
75022;SHT31;63583;49.976;20.182;2023-09-07T05:02:15;15.06;84.10
75022;SHT31;63583;49.976;20.182;2023-09-07T05:04:40;15.19;83.70
75022;SHT31;63583;49.976;20.182;2023-09-07T05:07:06;15.28;83.12
75022;SHT31;63583;49.976;20.182;2023-09-07T05:09:32;15.36;82.97
75022;SHT31;63583;49.976;20.182;2023-09-07T05:11:59;15.53;82.46
75022;SHT31;63583;49.976;20.182;2023-09-07T05:14:25;15.68;81.61
75022;SHT31;63583;49.976;20.182;2023-09-07T05:16:51;15.76;81.69
75022;SHT31;63583;49.976;20.182;2023-09-07T05:19:16;15.83;81.30
75022;SHT31;63583;49.976;20.182;2023-09-07T05:21:42;15.87;81.50
75022;SHT31;63583;49.976;20.182;2023-09-07T05:24:08;15.97;81.39
75022;SHT31;63583;49.976;20.182;2023-09-07T05:26:34;16.04;81.23
75022;SHT31;63583;49.976;20.182;2023-09-07T05:28:59;16.08;81.76
75022;SHT31;63583;49.976;20.182;2023-09-07T05:31:25;16.16;81.74
75022;SHT31;63583;49.976;20.182;2023-09-07T05:33:52;16.21;81.81
75022;SHT31;63583;49.976;20.182;2023-09-07T05:36:18;16.33;81.78
75022;SHT31;63583;49.976;20.182;2023-09-07T05:38:43;16.24;81.78
75022;SHT31;63583;49.976;20.182;2023-09-07T05:41:09;16.32;82.39
75022;SHT31;63583;49.976;20.182;2023-09-07T05:43:35;16.36;82.20
75022;SHT31;63583;49.976;20.182;2023-09-07T05:46:01;16.38;83.11
75022;SHT31;63583;49.976;20.182;2023-09-07T05:48:27;16.51;82.89
75022;SHT31;63583;49.976;20.182;2023-09-07T05:50:53;16.43;82.80
75022;SHT31;63583;49.976;20.182;2023-09-07T05:53:19;16.43;83.92
75022;SHT31;63583;49.976;20.182;2023-09-07T05:55:47;16.46;83.74
75022;SHT31;63583;49.976;20.182;2023-09-07T05:58:13;16.29;83.92
75022;SHT31;63583;49.976;20.182;2023-09-07T06:00:40;16.12;84.58
75022;SHT31;63583;49.976;20.182;2023-09-07T06:03:07;16.24;84.13
75022;SHT31;63583;49.976;20.182;2023-09-07T06:05:33;16.52;82.82
75022;SHT31;63583;49.976;20.182;2023-09-07T06:08:00;16.55;83.54
75022;SHT31;63583;49.976;20.182;2023-09-07T06:10:27;16.42;83.64
75022;SHT31;63583;49.976;20.182;2023-09-07T06:12:53;16.57;82.88
75022;SHT31;63583;49.976;20.182;2023-09-07T06:15:19;16.74;82.52
75022;SHT31;63583;49.976;20.182;2023-09-07T06:17:45;16.91;81.13
75022;SHT31;63583;49.976;20.182;2023-09-07T06:20:11;17.00;80.84
75022;SHT31;63583;49.976;20.182;2023-09-07T06:22:36;17.00;80.93
75022;SHT31;63583;49.976;20.182;2023-09-07T06:25:02;17.01;81.31
75022;SHT31;63583;49.976;20.182;2023-09-07T06:27:28;17.17;81.95
75022;SHT31;63583;49.976;20.182;2023-09-07T06:29:54;17.34;81.68
75022;SHT31;63583;49.976;20.182;2023-09-07T06:32:20;17.56;80.38
75022;SHT31;63583;49.976;20.182;2023-09-07T06:34:46;17.82;79.71
75022;SHT31;63583;49.976;20.182;2023-09-07T06:37:11;17.96;79.31
75022;SHT31;63583;49.976;20.182;2023-09-07T06:39:37;17.94;78.63
75022;SHT31;63583;49.976;20.182;2023-09-07T06:42:04;18.00;77.89
75022;SHT31;63583;49.976;20.182;2023-09-07T06:44:30;17.85;77.55
75022;SHT31;63583;49.976;20.182;2023-09-07T06:46:55;17.91;78.15
75022;SHT31;63583;49.976;20.182;2023-09-07T06:49:21;18.10;77.51
75022;SHT31;63583;49.976;20.182;2023-09-07T06:51:47;18.14;76.65
75022;SHT31;63583;49.976;20.182;2023-09-07T06:54:13;18.24;77.92
75022;SHT31;63583;49.976;20.182;2023-09-07T06:56:39;18.28;77.34
75022;SHT31;63583;49.976;20.182;2023-09-07T06:59:05;18.63;76.86
75022;SHT31;63583;49.976;20.182;2023-09-07T07:01:31;18.56;77.12
75022;SHT31;63583;49.976;20.182;2023-09-07T07:03:56;18.58;76.38
75022;SHT31;63583;49.976;20.182;2023-09-07T07:06:23;18.69;76.42
75022;SHT31;63583;49.976;20.182;2023-09-07T07:08:49;18.44;77.16
75022;SHT31;63583;49.976;20.182;2023-09-07T07:11:14;18.61;77.01
75022;SHT31;63583;49.976;20.182;2023-09-07T07:13:40;18.71;76.22
75022;SHT31;63583;49.976;20.182;2023-09-07T07:16:06;18.55;76.69
75022;SHT31;63583;49.976;20.182;2023-09-07T07:18:32;18.66;76.08
75022;SHT31;63583;49.976;20.182;2023-09-07T07:20:57;18.69;76.43
75022;SHT31;63583;49.976;20.182;2023-09-07T07:23:23;18.90;77.61
75022;SHT31;63583;49.976;20.182;2023-09-07T07:25:49;18.93;75.95
75022;SHT31;63583;49.976;20.182;2023-09-07T07:28:15;18.96;75.38
75022;SHT31;63583;49.976;20.182;2023-09-07T07:30:41;18.90;76.78
75022;SHT31;63583;49.976;20.182;2023-09-07T07:33:07;19.07;76.89
75022;SHT31;63583;49.976;20.182;2023-09-07T07:35:33;19.20;75.71
75022;SHT31;63583;49.976;20.182;2023-09-07T07:38:01;19.47;74.01
75022;SHT31;63583;49.976;20.182;2023-09-07T07:40:27;19.16;75.72
75022;SHT31;63583;49.976;20.182;2023-09-07T07:42:53;19.54;74.51
75022;SHT31;63583;49.976;20.182;2023-09-07T07:45:19;19.38;73.63
75022;SHT31;63583;49.976;20.182;2023-09-07T07:47:49;19.46;72.90
75022;SHT31;63583;49.976;20.182;2023-09-07T07:50:15;19.47;73.74
75022;SHT31;63583;49.976;20.182;2023-09-07T07:52:41;19.47;72.64
75022;SHT31;63583;49.976;20.182;2023-09-07T07:55:07;19.57;74.54
75022;SHT31;63583;49.976;20.182;2023-09-07T07:57:33;19.53;72.30
75022;SHT31;63583;49.976;20.182;2023-09-07T07:59:59;19.58;72.39
75022;SHT31;63583;49.976;20.182;2023-09-07T08:02:25;19.74;73.25
75022;SHT31;63583;49.976;20.182;2023-09-07T08:04:50;19.83;74.36
75022;SHT31;63583;49.976;20.182;2023-09-07T08:07:16;20.10;73.37
75022;SHT31;63583;49.976;20.182;2023-09-07T08:09:42;19.96;73.32
75022;SHT31;63583;49.976;20.182;2023-09-07T08:12:08;19.96;72.02
75022;SHT31;63583;49.976;20.182;2023-09-07T08:14:34;20.00;69.82
75022;SHT31;63583;49.976;20.182;2023-09-07T08:17:00;20.00;69.99
75022;SHT31;63583;49.976;20.182;2023-09-07T08:19:27;20.20;71.52
75022;SHT31;63583;49.976;20.182;2023-09-07T08:21:53;20.36;72.64
75022;SHT31;63583;49.976;20.182;2023-09-07T08:24:19;20.30;68.15
75022;SHT31;63583;49.976;20.182;2023-09-07T08:26:45;20.44;71.36
75022;SHT31;63583;49.976;20.182;2023-09-07T08:29:10;20.32;70.10
75022;SHT31;63583;49.976;20.182;2023-09-07T08:31:37;20.55;70.08
75022;SHT31;63583;49.976;20.182;2023-09-07T08:34:08;20.87;70.10
75022;SHT31;63583;49.976;20.182;2023-09-07T08:36:37;20.87;68.91
75022;SHT31;63583;49.976;20.182;2023-09-07T08:39:04;20.71;68.66
75022;SHT31;63583;49.976;20.182;2023-09-07T08:41:40;21.02;69.35
75022;SHT31;63583;49.976;20.182;2023-09-07T08:44:15;20.90;67.73
75022;SHT31;63583;49.976;20.182;2023-09-07T08:46:42;20.98;67.65
75022;SHT31;63583;49.976;20.182;2023-09-07T08:49:08;21.08;68.11
75022;SHT31;63583;49.976;20.182;2023-09-07T08:51:35;21.02;67.89
75022;SHT31;63583;49.976;20.182;2023-09-07T08:54:03;21.08;66.81
75022;SHT31;63583;49.976;20.182;2023-09-07T08:56:30;21.12;67.86
75022;SHT31;63583;49.976;20.182;2023-09-07T08:58:56;21.40;68.22
75022;SHT31;63583;49.976;20.182;2023-09-07T09:01:22;21.73;68.96
75022;SHT31;63583;49.976;20.182;2023-09-07T09:03:48;21.86;65.72
75022;SHT31;63583;49.976;20.182;2023-09-07T09:06:17;21.94;65.61
75022;SHT31;63583;49.976;20.182;2023-09-07T09:08:45;21.71;64.92
75022;SHT31;63583;49.976;20.182;2023-09-07T09:11:11;21.74;65.89
75022;SHT31;63583;49.976;20.182;2023-09-07T09:13:39;21.70;66.30
75022;SHT31;63583;49.976;20.182;2023-09-07T09:16:05;21.74;68.05
75022;SHT31;63583;49.976;20.182;2023-09-07T09:18:31;21.80;65.21
75022;SHT31;63583;49.976;20.182;2023-09-07T09:20:57;21.80;66.07
75022;SHT31;63583;49.976;20.182;2023-09-07T09:23:33;21.98;66.63
75022;SHT31;63583;49.976;20.182;2023-09-07T09:26:03;22.15;67.81
75022;SHT31;63583;49.976;20.182;2023-09-07T09:28:34;22.14;67.01
75022;SHT31;63583;49.976;20.182;2023-09-07T09:31:03;22.43;67.70
75022;SHT31;63583;49.976;20.182;2023-09-07T09:33:32;22.15;65.58
75022;SHT31;63583;49.976;20.182;2023-09-07T09:35:59;22.32;66.92
75022;SHT31;63583;49.976;20.182;2023-09-07T09:38:25;22.45;67.22
75022;SHT31;63583;49.976;20.182;2023-09-07T09:40:51;22.16;66.25
75022;SHT31;63583;49.976;20.182;2023-09-07T09:43:19;22.48;67.10
75022;SHT31;63583;49.976;20.182;2023-09-07T09:45:45;22.51;66.82
75022;SHT31;63583;49.976;20.182;2023-09-07T09:48:11;22.64;66.43
75022;SHT31;63583;49.976;20.182;2023-09-07T09:50:40;22.59;64.45
75022;SHT31;63583;49.976;20.182;2023-09-07T09:53:06;22.53;64.49
75022;SHT31;63583;49.976;20.182;2023-09-07T09:55:35;22.67;63.90
75022;SHT31;63583;49.976;20.182;2023-09-07T09:58:01;22.55;65.36
75022;SHT31;63583;49.976;20.182;2023-09-07T10:00:27;22.84;67.64
75022;SHT31;63583;49.976;20.182;2023-09-07T10:03:05;23.10;65.18
75022;SHT31;63583;49.976;20.182;2023-09-07T10:05:31;22.90;62.86
75022;SHT31;63583;49.976;20.182;2023-09-07T10:08:08;22.56;62.62
75022;SHT31;63583;49.976;20.182;2023-09-07T10:10:37;22.64;63.11
75022;SHT31;63583;49.976;20.182;2023-09-07T10:13:05;22.73;64.39
75022;SHT31;63583;49.976;20.182;2023-09-07T10:15:31;22.89;62.05
75022;SHT31;63583;49.976;20.182;2023-09-07T10:18:16;22.99;62.78
75022;SHT31;63583;49.976;20.182;2023-09-07T10:20:53;23.04;63.17
75022;SHT31;63583;49.976;20.182;2023-09-07T10:23:20;22.94;61.78
75022;SHT31;63583;49.976;20.182;2023-09-07T10:25:49;22.99;63.26
75022;SHT31;63583;49.976;20.182;2023-09-07T10:28:23;23.17;61.55
75022;SHT31;63583;49.976;20.182;2023-09-07T10:31:15;23.04;63.27
75022;SHT31;63583;49.976;20.182;2023-09-07T10:33:41;23.25;63.25
75022;SHT31;63583;49.976;20.182;2023-09-07T10:36:07;23.18;62.50
75022;SHT31;63583;49.976;20.182;2023-09-07T10:38:34;23.07;63.40
75022;SHT31;63583;49.976;20.182;2023-09-07T10:41:02;23.12;61.45
75022;SHT31;63583;49.976;20.182;2023-09-07T10:43:29;23.04;61.86
75022;SHT31;63583;49.976;20.182;2023-09-07T10:45:56;22.93;61.75
75022;SHT31;63583;49.976;20.182;2023-09-07T10:48:23;23.03;61.90
75022;SHT31;63583;49.976;20.182;2023-09-07T10:50:49;23.28;62.23
75022;SHT31;63583;49.976;20.182;2023-09-07T10:53:25;23.39;62.35
75022;SHT31;63583;49.976;20.182;2023-09-07T10:55:53;23.38;60.14
75022;SHT31;63583;49.976;20.182;2023-09-07T10:58:27;23.42;61.74
75022;SHT31;63583;49.976;20.182;2023-09-07T11:00:54;23.29;61.14
75022;SHT31;63583;49.976;20.182;2023-09-07T11:03:20;23.29;62.64
75022;SHT31;63583;49.976;20.182;2023-09-07T11:05:46;23.45;62.58
75022;SHT31;63583;49.976;20.182;2023-09-07T11:08:12;23.39;61.65
75022;SHT31;63583;49.976;20.182;2023-09-07T11:10:38;23.27;63.60
75022;SHT31;63583;49.976;20.182;2023-09-07T11:13:05;23.49;61.00
75022;SHT31;63583;49.976;20.182;2023-09-07T11:15:32;23.49;61.43
75022;SHT31;63583;49.976;20.182;2023-09-07T11:18:06;23.45;61.56
75022;SHT31;63583;49.976;20.182;2023-09-07T11:20:33;23.75;62.19
75022;SHT31;63583;49.976;20.182;2023-09-07T11:22:59;23.73;61.15
75022;SHT31;63583;49.976;20.182;2023-09-07T11:25:26;23.82;59.76
75022;SHT31;63583;49.976;20.182;2023-09-07T11:27:52;23.83;59.10
75022;SHT31;63583;49.976;20.182;2023-09-07T11:30:23;23.87;59.70
75022;SHT31;63583;49.976;20.182;2023-09-07T11:32:49;23.82;58.68
75022;SHT31;63583;49.976;20.182;2023-09-07T11:35:15;23.86;57.40
75022;SHT31;63583;49.976;20.182;2023-09-07T11:37:41;23.79;56.37
75022;SHT31;63583;49.976;20.182;2023-09-07T11:40:08;23.55;58.80
75022;SHT31;63583;49.976;20.182;2023-09-07T11:42:38;23.73;59.88
75022;SHT31;63583;49.976;20.182;2023-09-07T11:45:07;23.77;56.94
75022;SHT31;63583;49.976;20.182;2023-09-07T11:47:34;23.56;57.36
75022;SHT31;63583;49.976;20.182;2023-09-07T11:50:01;23.79;57.14
75022;SHT31;63583;49.976;20.182;2023-09-07T11:52:26;23.58;56.50
75022;SHT31;63583;49.976;20.182;2023-09-07T11:54:52;23.66;56.89
75022;SHT31;63583;49.976;20.182;2023-09-07T11:57:18;23.61;56.51
75022;SHT31;63583;49.976;20.182;2023-09-07T11:59:44;23.73;58.30
75022;SHT31;63583;49.976;20.182;2023-09-07T12:02:09;23.93;57.84
75022;SHT31;63583;49.976;20.182;2023-09-07T12:04:40;23.82;58.68
75022;SHT31;63583;49.976;20.182;2023-09-07T12:07:06;23.68;59.06
75022;SHT31;63583;49.976;20.182;2023-09-07T12:09:32;23.70;57.23
75022;SHT31;63583;49.976;20.182;2023-09-07T12:11:57;23.92;58.73
75022;SHT31;63583;49.976;20.182;2023-09-07T12:14:23;23.97;58.70
75022;SHT31;63583;49.976;20.182;2023-09-07T12:16:49;24.04;58.39
75022;SHT31;63583;49.976;20.182;2023-09-07T12:19:15;24.12;57.76
75022;SHT31;63583;49.976;20.182;2023-09-07T12:21:40;23.87;58.45
75022;SHT31;63583;49.976;20.182;2023-09-07T12:24:08;23.79;60.49
75022;SHT31;63583;49.976;20.182;2023-09-07T12:26:33;23.90;60.15
75022;SHT31;63583;49.976;20.182;2023-09-07T12:28:59;23.95;59.31
75022;SHT31;63583;49.976;20.182;2023-09-07T12:31:25;24.07;58.76
75022;SHT31;63583;49.976;20.182;2023-09-07T12:33:51;23.93;58.93
75022;SHT31;63583;49.976;20.182;2023-09-07T12:36:17;23.97;58.34
75022;SHT31;63583;49.976;20.182;2023-09-07T12:38:43;23.73;59.67
75022;SHT31;63583;49.976;20.182;2023-09-07T12:41:09;23.85;59.84
75022;SHT31;63583;49.976;20.182;2023-09-07T12:43:36;24.04;59.63
75022;SHT31;63583;49.976;20.182;2023-09-07T12:46:01;24.20;59.63
75022;SHT31;63583;49.976;20.182;2023-09-07T12:48:27;24.12;58.34
75022;SHT31;63583;49.976;20.182;2023-09-07T12:50:54;24.06;58.47
75022;SHT31;63583;49.976;20.182;2023-09-07T12:53:20;24.13;60.19
75022;SHT31;63583;49.976;20.182;2023-09-07T12:55:51;24.02;58.85
75022;SHT31;63583;49.976;20.182;2023-09-07T12:58:17;24.04;56.73
75022;SHT31;63583;49.976;20.182;2023-09-07T13:00:43;24.17;58.01
75022;SHT31;63583;49.976;20.182;2023-09-07T13:03:09;23.96;58.54
75022;SHT31;63583;49.976;20.182;2023-09-07T13:05:36;24.03;58.89
75022;SHT31;63583;49.976;20.182;2023-09-07T13:08:02;24.31;59.03
75022;SHT31;63583;49.976;20.182;2023-09-07T13:10:28;24.00;57.77
75022;SHT31;63583;49.976;20.182;2023-09-07T13:12:55;24.00;57.01
75022;SHT31;63583;49.976;20.182;2023-09-07T13:15:21;24.07;55.65
75022;SHT31;63583;49.976;20.182;2023-09-07T13:17:48;24.09;56.33
75022;SHT31;63583;49.976;20.182;2023-09-07T13:20:13;24.02;56.44
75022;SHT31;63583;49.976;20.182;2023-09-07T13:22:39;23.96;57.24
75022;SHT31;63583;49.976;20.182;2023-09-07T13:25:05;24.04;56.48
75022;SHT31;63583;49.976;20.182;2023-09-07T13:27:31;23.86;56.45
75022;SHT31;63583;49.976;20.182;2023-09-07T13:29:57;23.86;57.94
75022;SHT31;63583;49.976;20.182;2023-09-07T13:32:23;23.86;56.94
75022;SHT31;63583;49.976;20.182;2023-09-07T13:34:50;23.95;57.23
75022;SHT31;63583;49.976;20.182;2023-09-07T13:37:16;24.04;56.98
75022;SHT31;63583;49.976;20.182;2023-09-07T13:39:41;24.06;59.20
75022;SHT31;63583;49.976;20.182;2023-09-07T13:42:07;23.92;58.07
75022;SHT31;63583;49.976;20.182;2023-09-07T13:44:33;23.95;57.98
75022;SHT31;63583;49.976;20.182;2023-09-07T13:46:59;24.06;57.02
75022;SHT31;63583;49.976;20.182;2023-09-07T13:49:25;24.09;56.82
75022;SHT31;63583;49.976;20.182;2023-09-07T13:51:51;23.99;56.50
75022;SHT31;63583;49.976;20.182;2023-09-07T13:54:16;24.14;57.25
75022;SHT31;63583;49.976;20.182;2023-09-07T13:56:42;24.02;57.47
75022;SHT31;63583;49.976;20.182;2023-09-07T13:59:10;23.99;56.39
75022;SHT31;63583;49.976;20.182;2023-09-07T14:01:36;24.09;57.09
75022;SHT31;63583;49.976;20.182;2023-09-07T14:04:03;24.09;57.95
75022;SHT31;63583;49.976;20.182;2023-09-07T14:06:29;24.03;58.02
75022;SHT31;63583;49.976;20.182;2023-09-07T14:08:55;23.80;59.00
75022;SHT31;63583;49.976;20.182;2023-09-07T14:11:21;23.85;57.59
75022;SHT31;63583;49.976;20.182;2023-09-07T14:13:48;23.66;59.99
75022;SHT31;63583;49.976;20.182;2023-09-07T14:16:18;23.72;58.51
75022;SHT31;63583;49.976;20.182;2023-09-07T14:18:44;23.82;57.96
75022;SHT31;63583;49.976;20.182;2023-09-07T14:21:10;23.76;58.54
75022;SHT31;63583;49.976;20.182;2023-09-07T14:23:36;23.85;59.01
75022;SHT31;63583;49.976;20.182;2023-09-07T14:26:03;23.76;58.00
75022;SHT31;63583;49.976;20.182;2023-09-07T14:28:28;23.82;57.96
75022;SHT31;63583;49.976;20.182;2023-09-07T14:30:54;23.75;58.69
75022;SHT31;63583;49.976;20.182;2023-09-07T14:33:20;23.70;58.36
75022;SHT31;63583;49.976;20.182;2023-09-07T14:35:47;23.70;57.56
75022;SHT31;63583;49.976;20.182;2023-09-07T14:38:13;23.72;58.63
75022;SHT31;63583;49.976;20.182;2023-09-07T14:40:38;23.65;58.33
75022;SHT31;63583;49.976;20.182;2023-09-07T14:43:04;23.69;58.71
75022;SHT31;63583;49.976;20.182;2023-09-07T14:45:31;23.80;58.61
75022;SHT31;63583;49.976;20.182;2023-09-07T14:47:57;23.70;58.75
75022;SHT31;63583;49.976;20.182;2023-09-07T14:50:23;23.59;57.66
75022;SHT31;63583;49.976;20.182;2023-09-07T14:52:48;23.70;57.98
75022;SHT31;63583;49.976;20.182;2023-09-07T14:55:14;23.48;59.46
75022;SHT31;63583;49.976;20.182;2023-09-07T14:57:40;23.59;59.14
75022;SHT31;63583;49.976;20.182;2023-09-07T15:00:07;23.59;57.79
75022;SHT31;63583;49.976;20.182;2023-09-07T15:02:33;23.62;58.69
75022;SHT31;63583;49.976;20.182;2023-09-07T15:04:59;23.61;57.88
75022;SHT31;63583;49.976;20.182;2023-09-07T15:07:24;23.48;58.16
75022;SHT31;63583;49.976;20.182;2023-09-07T15:09:50;23.51;58.12
75022;SHT31;63583;49.976;20.182;2023-09-07T15:12:16;23.52;59.54